Time;durP1;ratioP1;P1;durP2;ratioP2;P2;SDS_P1;SDS_P2;PMS_P1;PMS_P2;Temp;Humidity;BMP_temperature;BMP_pressure;BME280_temperature;BME280_humidity;BME280_pressure;Samples;Min_cycle;Max_cycle;Signal;HPM_P1;HPM_P2
2023/12/23 00:00:41;;;;;;;;;;;;;;;8.27;41.33;96123.50;68039;1275;1017975;-75
2023/12/23 00:04:03;;;;;;;;;;;;;;;8.23;40.21;96137.16;68012;1275;1016094;-74
2023/12/23 00:07:06;;;;;;;;;;;;;;;8.33;40.44;96125.55;68016;1275;1016497;-74
2023/12/23 00:10:08;;;;;;;;;;;;;;;8.46;40.45;96137.45;68053;1275;1016851;-75
2023/12/23 00:13:11;;;;;;;;;;;;;;;8.57;39.87;96138.70;68048;1275;1016271;-74
2023/12/23 00:16:14;;;;;;;;;;;;;;;8.51;39.86;96154.56;68024;1275;1016068;-74
2023/12/23 00:19:16;;;;;;;;;;;;;;;8.47;40.07;96159.62;68047;1275;1015994;-77
2023/12/23 00:22:19;;;;;;;;;;;;;;;8.59;39.99;96151.02;68038;1275;1016377;-74
2023/12/23 00:25:21;;;;;;;;;;;;;;;8.52;40.33;96145.89;68010;1275;1016444;-74
2023/12/23 00:28:24;;;;;;;;;;;;;;;8.73;39.78;96135.23;68014;1275;1016487;-74
2023/12/23 00:31:27;;;;;;;;;;;;;;;8.79;39.93;96135.11;68045;1275;1016422;-74
2023/12/23 00:34:29;;;;;;;;;;;;;;;8.97;39.17;96143.73;68067;1275;1016477;-75
2023/12/23 00:37:32;;;;;;;;;;;;;;;7.81;41.22;96141.74;68050;1275;1016439;-75
2023/12/23 00:40:35;;;;;;;;;;;;;;;7.83;41.36;96146.90;68004;1275;1016275;-75
2023/12/23 00:43:38;;;;;;;;;;;;;;;7.27;42.69;96145.74;68037;1275;1016424;-74
2023/12/23 00:46:40;;;;;;;;;;;;;;;7.02;43.19;96148.39;67969;1275;1016657;-75
2023/12/23 00:49:44;;;;;;;;;;;;;;;7.36;42.76;96154.55;68017;1275;1017277;-75
2023/12/23 00:52:47;;;;;;;;;;;;;;;7.79;41.68;96164.80;68001;1275;1018096;-75
2023/12/23 00:55:50;;;;;;;;;;;;;;;8.24;40.72;96160.88;68048;1275;1018716;-75
2023/12/23 00:58:52;;;;;;;;;;;;;;;8.69;39.63;96150.55;68042;1275;1016325;-75
2023/12/23 01:01:55;;;;;;;;;;;;;;;7.72;41.66;96179.76;67999;1275;1017276;-75
2023/12/23 01:04:58;;;;;;;;;;;;;;;7.69;42.07;96178.01;67993;1275;1016319;-75
2023/12/23 01:08:00;;;;;;;;;;;;;;;7.79;41.57;96180.52;68028;1275;1016157;-75
2023/12/23 01:11:03;;;;;;;;;;;;;;;8.15;40.78;96178.07;67962;1275;1016490;-74
2023/12/23 01:14:06;;;;;;;;;;;;;;;8.16;40.65;96193.61;67988;1275;1016516;-75
2023/12/23 01:17:09;;;;;;;;;;;;;;;8.47;40.11;96189.08;67991;1275;1016268;-74
2023/12/23 01:20:11;;;;;;;;;;;;;;;8.53;40.10;96181.41;67975;1275;1018783;-74
2023/12/23 01:23:14;;;;;;;;;;;;;;;7.31;43.16;96187.09;68044;1275;1016489;-74
2023/12/23 01:26:16;;;;;;;;;;;;;;;7.82;41.91;96193.15;68064;1275;1016254;-75
2023/12/23 01:29:19;;;;;;;;;;;;;;;8.48;40.22;96191.08;67986;1275;1016955;-74
2023/12/23 01:32:22;;;;;;;;;;;;;;;8.42;40.98;96186.90;68016;1275;1018527;-74
2023/12/23 01:35:24;;;;;;;;;;;;;;;8.32;41.10;96194.80;68082;1275;1016304;-74
2023/12/23 01:38:27;;;;;;;;;;;;;;;8.28;41.17;96192.69;68010;1275;1016413;-75
2023/12/23 01:41:30;;;;;;;;;;;;;;;8.39;40.49;96204.80;67997;1275;1016079;-74
2023/12/23 01:44:32;;;;;;;;;;;;;;;8.34;40.78;96223.33;68060;1275;1015975;-74
2023/12/23 01:47:35;;;;;;;;;;;;;;;8.57;40.34;96214.95;68039;1275;1016582;-74
2023/12/23 01:50:38;;;;;;;;;;;;;;;8.68;39.64;96212.04;67963;1275;1016198;-74
2023/12/23 01:53:40;;;;;;;;;;;;;;;8.78;39.97;96215.20;68069;1275;1016243;-74
2023/12/23 01:56:43;;;;;;;;;;;;;;;8.70;39.77;96221.58;68063;1275;1017040;-75
2023/12/23 01:59:45;;;;;;;;;;;;;;;8.94;40.01;96221.73;68008;1275;1016440;-74
2023/12/23 02:02:48;;;;;;;;;;;;;;;8.79;40.21;96222.83;67978;1275;1016428;-74
2023/12/23 02:05:50;;;;;;;;;;;;;;;9.02;39.53;96220.95;68015;1275;1016869;-74
2023/12/23 02:08:53;;;;;;;;;;;;;;;8.68;39.56;96242.80;68040;1275;1016455;-74
2023/12/23 02:11:56;;;;;;;;;;;;;;;8.61;40.02;96229.41;68015;1275;1016499;-74
2023/12/23 02:14:58;;;;;;;;;;;;;;;8.76;39.58;96232.48;68033;1275;1015864;-73
2023/12/23 02:18:01;;;;;;;;;;;;;;;8.42;40.03;96245.17;68055;1275;1016397;-74
2023/12/23 02:21:03;;;;;;;;;;;;;;;8.56;40.53;96243.63;68049;1275;1016342;-74
2023/12/23 02:24:06;;;;;;;;;;;;;;;8.46;40.29;96248.53;68014;1275;1016543;-75
2023/12/23 02:27:08;;;;;;;;;;;;;;;8.58;39.98;96245.89;68044;1275;1016422;-75
2023/12/23 02:30:12;;;;;;;;;;;;;;;8.52;39.62;96270.30;68030;1275;1016429;-75
2023/12/23 02:33:15;;;;;;;;;;;;;;;8.67;39.87;96255.09;68053;1275;1016217;-74
2023/12/23 02:36:18;;;;;;;;;;;;;;;8.71;39.83;96255.60;67986;1275;1016285;-74
2023/12/23 02:39:20;;;;;;;;;;;;;;;7.71;41.42;96267.67;68021;1275;1016320;-74
2023/12/23 02:42:23;;;;;;;;;;;;;;;7.50;41.93;96276.52;68049;1275;1016284;-74
2023/12/23 02:45:25;;;;;;;;;;;;;;;8.18;40.55;96275.96;68048;1275;1016518;-74
2023/12/23 02:48:28;;;;;;;;;;;;;;;8.02;40.69;96280.05;68001;1275;1018599;-74
2023/12/23 02:51:30;;;;;;;;;;;;;;;8.04;40.78;96280.58;68000;1275;1016470;-75
2023/12/23 02:54:33;;;;;;;;;;;;;;;8.09;40.80;96286.02;68056;1275;1016419;-74
2023/12/23 02:57:36;;;;;;;;;;;;;;;8.24;40.33;96292.14;67987;1275;1016185;-75
2023/12/23 03:00:38;;;;;;;;;;;;;;;8.32;40.71;96299.98;68012;1275;1016607;-75
2023/12/23 03:03:41;;;;;;;;;;;;;;;8.30;40.95;96305.54;68047;1275;1016141;-74
2023/12/23 03:06:43;;;;;;;;;;;;;;;8.38;40.38;96313.30;68065;1275;1016339;-74
2023/12/23 03:09:46;;;;;;;;;;;;;;;8.42;39.53;96327.46;68001;1275;1018591;-74
2023/12/23 03:12:49;;;;;;;;;;;;;;;8.59;39.32;96336.87;68024;1275;1018156;-74
2023/12/23 03:15:51;;;;;;;;;;;;;;;8.66;39.04;96347.39;68074;1275;1016558;-75
2023/12/23 03:18:54;;;;;;;;;;;;;;;8.56;39.34;96343.74;68066;1275;1016210;-74
2023/12/23 03:21:56;;;;;;;;;;;;;;;7.99;40.43;96345.27;68000;1275;1016474;-75
2023/12/23 03:24:59;;;;;;;;;;;;;;;7.63;40.94;96344.91;67981;1275;1016656;-74
2023/12/23 03:28:02;;;;;;;;;;;;;;;7.74;40.79;96362.23;67995;1275;1016507;-75
2023/12/23 03:31:04;;;;;;;;;;;;;;;8.07;40.11;96360.92;68019;1275;1016727;-74
2023/12/23 03:34:07;;;;;;;;;;;;;;;8.39;39.76;96361.88;67996;1275;1016420;-75
2023/12/23 03:37:09;;;;;;;;;;;;;;;8.35;39.82;96373.17;68019;1275;1016501;-74
2023/12/23 03:40:12;;;;;;;;;;;;;;;8.08;39.46;96377.50;68042;1275;1018900;-74
2023/12/23 03:43:15;;;;;;;;;;;;;;;8.46;39.37;96377.75;68030;1275;1017105;-74
2023/12/23 03:46:17;;;;;;;;;;;;;;;8.70;38.94;96374.41;67985;1275;1016493;-74
2023/12/23 03:49:20;;;;;;;;;;;;;;;8.34;38.65;96406.38;68023;1275;1016442;-74
2023/12/23 03:52:23;;;;;;;;;;;;;;;8.31;38.45;96404.37;68005;1275;1017692;-74
2023/12/23 03:55:32;;;;;;;;;;;;;;;8.43;38.14;96399.97;68007;1275;1016428;-74
2023/12/23 03:58:34;;;;;;;;;;;;;;;8.34;38.49;96401.61;68048;1275;1016512;-74
2023/12/23 04:01:37;;;;;;;;;;;;;;;8.32;38.74;96411.95;67996;1275;1016026;-74
2023/12/23 04:04:40;;;;;;;;;;;;;;;8.12;39.27;96419.98;68053;1275;1018435;-74
2023/12/23 04:07:42;;;;;;;;;;;;;;;8.45;38.76;96419.66;68028;1275;1016290;-74
2023/12/23 04:10:45;;;;;;;;;;;;;;;8.26;39.38;96410.21;68053;1275;1016578;-74
2023/12/23 04:13:48;;;;;;;;;;;;;;;8.46;39.00;96427.40;68007;1275;1016467;-75
2023/12/23 04:16:50;;;;;;;;;;;;;;;8.52;39.14;96434.89;68055;1275;1016850;-75
2023/12/23 04:19:53;;;;;;;;;;;;;;;9.02;38.21;96418.77;68046;1275;1016507;-74
2023/12/23 04:22:57;;;;;;;;;;;;;;;8.82;38.34;96428.52;68013;1275;1016535;-74
2023/12/23 04:25:59;;;;;;;;;;;;;;;8.73;38.34;96440.27;68050;1275;1016103;-74
2023/12/23 04:29:02;;;;;;;;;;;;;;;8.60;38.53;96440.90;68017;1275;1016364;-75
2023/12/23 04:32:05;;;;;;;;;;;;;;;8.54;38.32;96452.82;67997;1275;1016418;-73
2023/12/23 04:35:07;;;;;;;;;;;;;;;8.59;38.48;96455.64;68042;1275;1016819;-75
2023/12/23 04:38:10;;;;;;;;;;;;;;;8.56;37.96;96474.77;68047;1275;1016115;-75
2023/12/23 04:41:12;;;;;;;;;;;;;;;8.59;37.52;96472.39;68022;1275;1016500;-74
2023/12/23 04:44:15;;;;;;;;;;;;;;;8.71;37.50;96475.70;67997;1275;1016321;-74
2023/12/23 04:47:18;;;;;;;;;;;;;;;8.61;37.34;96483.36;68024;1275;1015994;-75
2023/12/23 04:50:20;;;;;;;;;;;;;;;8.48;37.17;96509.61;68022;1275;1016323;-74
2023/12/23 04:53:23;;;;;;;;;;;;;;;8.65;36.76;96502.73;68008;1275;1016105;-74
2023/12/23 04:56:26;;;;;;;;;;;;;;;8.60;37.38;96509.63;67982;1275;1016322;-74
2023/12/23 04:59:28;;;;;;;;;;;;;;;8.52;37.37;96532.09;68035;1275;1016277;-75
2023/12/23 05:02:31;;;;;;;;;;;;;;;8.23;37.88;96537.54;68007;1275;1016609;-74
2023/12/23 05:05:34;;;;;;;;;;;;;;;8.16;38.46;96529.48;68043;1275;1016461;-74
2023/12/23 05:08:36;;;;;;;;;;;;;;;8.02;38.63;96547.05;68061;1275;1016420;-75
2023/12/23 05:11:39;;;;;;;;;;;;;;;7.92;38.71;96547.16;67978;1275;1016621;-73
2023/12/23 05:14:42;;;;;;;;;;;;;;;8.00;38.90;96545.10;67989;1275;1016884;-74
2023/12/23 05:17:44;;;;;;;;;;;;;;;8.05;38.92;96550.08;68045;1275;1016314;-74
2023/12/23 05:20:47;;;;;;;;;;;;;;;8.29;38.26;96554.27;68047;1275;1016213;-74
2023/12/23 05:23:49;;;;;;;;;;;;;;;8.36;37.93;96573.84;67964;1275;1016716;-74
2023/12/23 05:26:52;;;;;;;;;;;;;;;8.34;38.51;96560.30;65430;1275;6390818;-74
2023/12/23 05:29:56;;;;;;;;;;;;;;;8.30;38.71;96558.69;68017;1275;1016471;-74
2023/12/23 05:32:58;;;;;;;;;;;;;;;7.90;38.89;96572.91;68040;1275;1016465;-74
2023/12/23 05:36:01;;;;;;;;;;;;;;;7.88;38.93;96567.16;68020;1275;1017232;-74
2023/12/23 05:39:12;;;;;;;;;;;;;;;8.00;38.79;96571.58;67920;1275;1016197;-74
2023/12/23 05:42:15;;;;;;;;;;;;;;;7.78;39.29;96585.13;67992;1275;1016464;-74
2023/12/23 05:45:17;;;;;;;;;;;;;;;7.80;39.12;96590.15;68055;1275;1016797;-74
2023/12/23 05:48:20;;;;;;;;;;;;;;;7.52;39.55;96593.73;67918;1275;1018304;-74
2023/12/23 05:51:23;;;;;;;;;;;;;;;7.75;38.86;96607.50;67989;1275;1016434;-74
2023/12/23 05:54:25;;;;;;;;;;;;;;;7.63;39.35;96606.20;67973;1275;1016487;-74
2023/12/23 05:57:28;;;;;;;;;;;;;;;7.88;38.72;96618.52;67990;1275;1016516;-74
2023/12/23 06:00:30;;;;;;;;;;;;;;;7.88;38.87;96621.27;68017;1275;1015885;-74
2023/12/23 06:03:33;;;;;;;;;;;;;;;7.55;39.32;96625.45;68013;1275;1016580;-74
2023/12/23 06:06:36;;;;;;;;;;;;;;;7.92;39.02;96624.06;67998;1275;1016367;-74
2023/12/23 06:09:39;;;;;;;;;;;;;;;8.08;38.70;96624.64;68001;1275;1016435;-74
2023/12/23 06:12:41;;;;;;;;;;;;;;;7.94;39.20;96637.28;68014;1275;1015974;-74
2023/12/23 06:15:44;;;;;;;;;;;;;;;8.33;38.34;96637.13;68006;1275;1016570;-74
2023/12/23 06:18:47;;;;;;;;;;;;;;;8.10;38.95;96641.20;68038;1275;1016345;-74
2023/12/23 06:21:50;;;;;;;;;;;;;;;8.46;38.75;96652.96;67966;1275;1016472;-74
2023/12/23 06:24:52;;;;;;;;;;;;;;;8.41;38.93;96658.23;67945;1275;1016342;-74
2023/12/23 06:27:55;;;;;;;;;;;;;;;8.49;38.91;96678.48;68049;1275;1016414;-74
2023/12/23 06:30:58;;;;;;;;;;;;;;;8.51;39.07;96685.09;68043;1275;1016478;-74
2023/12/23 06:34:01;;;;;;;;;;;;;;;8.32;39.94;96696.79;68024;1275;1016447;-74
2023/12/23 06:37:04;;;;;;;;;;;;;;;8.15;40.23;96692.98;68038;1275;1016589;-74
2023/12/23 06:40:06;;;;;;;;;;;;;;;8.00;40.92;96697.40;67986;1275;1016400;-74
2023/12/23 06:43:09;;;;;;;;;;;;;;;8.36;40.39;96707.06;68038;1275;1016534;-74
2023/12/23 06:46:11;;;;;;;;;;;;;;;8.14;40.80;96708.61;68082;1275;1016350;-73
2023/12/23 06:49:14;;;;;;;;;;;;;;;8.27;40.53;96725.77;68006;1275;1016096;-73
2023/12/23 06:52:17;;;;;;;;;;;;;;;8.22;40.79;96730.92;67938;1275;1016436;-75
2023/12/23 06:55:19;;;;;;;;;;;;;;;8.15;40.94;96746.44;68058;1275;1018141;-74
2023/12/23 06:58:22;;;;;;;;;;;;;;;8.42;40.71;96747.11;68046;1275;1016057;-74
2023/12/23 07:01:25;;;;;;;;;;;;;;;8.46;40.50;96750.52;68026;1275;1018038;-74
2023/12/23 07:04:28;;;;;;;;;;;;;;;8.14;40.79;96748.27;67988;1275;1016194;-74
2023/12/23 07:07:31;;;;;;;;;;;;;;;8.29;40.49;96758.13;67997;1275;1016192;-73
2023/12/23 07:10:34;;;;;;;;;;;;;;;8.61;40.02;96767.73;68036;1275;1016183;-74
2023/12/23 07:13:36;;;;;;;;;;;;;;;8.36;40.39;96777.23;68007;1275;1016682;-74
2023/12/23 07:16:41;;;;;;;;;;;;;;;8.07;41.16;96781.42;67987;1275;1016480;-74
2023/12/23 07:19:45;;;;;;;;;;;;;;;6.18;45.19;96811.29;67987;1275;1016254;-74
2023/12/23 07:22:48;;;;;;;;;;;;;;;6.98;43.97;96807.91;67995;1275;1016613;-74
2023/12/23 07:25:52;;;;;;;;;;;;;;;7.19;43.69;96806.44;68056;1275;1016481;-74
2023/12/23 07:28:54;;;;;;;;;;;;;;;7.16;43.43;96808.77;68061;1275;1020156;-74
2023/12/23 07:31:57;;;;;;;;;;;;;;;6.76;44.59;96811.84;67990;1275;1016892;-74
2023/12/23 07:35:00;;;;;;;;;;;;;;;7.21;43.38;96820.20;68026;1275;1016025;-75
2023/12/23 07:38:02;;;;;;;;;;;;;;;7.34;43.45;96814.16;68014;1275;1016367;-74
2023/12/23 07:41:05;;;;;;;;;;;;;;;7.13;43.57;96826.55;68007;1275;1016114;-74
2023/12/23 07:44:08;;;;;;;;;;;;;;;7.15;43.46;96830.20;67997;1275;1016465;-74
2023/12/23 07:47:12;;;;;;;;;;;;;;;7.38;43.07;96827.02;68033;1275;1016533;-74
2023/12/23 07:50:15;;;;;;;;;;;;;;;7.36;42.71;96836.73;68039;1275;1016378;-74
2023/12/23 07:53:17;;;;;;;;;;;;;;;7.51;42.75;96827.73;67998;1275;1016235;-74
2023/12/23 07:56:20;;;;;;;;;;;;;;;7.64;42.73;96829.99;68036;1275;1019228;-74
2023/12/23 07:59:23;;;;;;;;;;;;;;;7.50;42.83;96841.41;68030;1275;1016436;-74
2023/12/23 08:02:25;;;;;;;;;;;;;;;7.75;42.09;96828.55;68008;1275;1016376;-74
2023/12/23 08:05:31;;;;;;;;;;;;;;;7.81;41.92;96836.65;68026;1275;1016484;-75
2023/12/23 08:08:34;;;;;;;;;;;;;;;7.73;42.07;96824.03;67994;1275;1016167;-74
2023/12/23 08:11:36;;;;;;;;;;;;;;;7.80;41.93;96839.98;68005;1275;1016211;-74
2023/12/23 08:14:39;;;;;;;;;;;;;;;7.61;42.46;96844.83;67988;1275;1016479;-75
2023/12/23 08:17:44;;;;;;;;;;;;;;;7.67;42.19;96835.00;68030;1275;1016262;-74
2023/12/23 08:20:46;;;;;;;;;;;;;;;7.97;41.42;96825.77;67976;1275;1016343;-74
2023/12/23 08:23:49;;;;;;;;;;;;;;;7.81;41.19;96831.71;68018;1275;1018766;-74
2023/12/23 08:26:52;;;;;;;;;;;;;;;8.10;40.97;96801.14;67986;1275;1016492;-74
2023/12/23 08:29:57;;;;;;;;;;;;;;;8.22;40.46;96813.28;68032;1275;1016581;-74
2023/12/23 08:33:00;;;;;;;;;;;;;;;8.36;40.65;96804.27;68008;1275;1016276;-74
2023/12/23 08:36:02;;;;;;;;;;;;;;;8.08;40.68;96802.94;68026;1275;1016477;-74
2023/12/23 08:39:05;;;;;;;;;;;;;;;8.04;40.97;96803.60;68047;1275;1016375;-74
2023/12/23 08:42:07;;;;;;;;;;;;;;;8.16;40.89;96795.65;68030;1275;1018561;-74
2023/12/23 08:45:10;;;;;;;;;;;;;;;8.26;40.90;96793.41;68000;1275;1016424;-74
2023/12/23 08:48:12;;;;;;;;;;;;;;;8.18;40.89;96796.49;68012;1275;1016503;-74
2023/12/23 08:51:15;;;;;;;;;;;;;;;8.14;41.34;96794.26;68003;1275;1016494;-74
2023/12/23 08:54:18;;;;;;;;;;;;;;;8.49;40.53;96792.88;67967;1275;1016217;-74
2023/12/23 08:57:21;;;;;;;;;;;;;;;8.50;40.32;96807.56;68061;1275;1016333;-75
2023/12/23 09:00:23;;;;;;;;;;;;;;;8.56;40.24;96816.36;68010;1275;1016064;-74
2023/12/23 09:03:27;;;;;;;;;;;;;;;8.48;40.42;96802.08;67973;1275;1016467;-74
2023/12/23 09:06:30;;;;;;;;;;;;;;;8.49;40.44;96801.56;68067;1275;1016341;-75
2023/12/23 09:09:33;;;;;;;;;;;;;;;8.78;39.77;96806.48;67998;1275;1016396;-74
2023/12/23 09:12:38;;;;;;;;;;;;;;;9.00;38.90;96812.05;67952;1275;1016363;-74
2023/12/23 09:15:41;;;;;;;;;;;;;;;8.89;39.14;96812.52;68007;1275;1016187;-74
2023/12/23 09:18:45;;;;;;;;;;;;;;;8.85;39.29;96817.92;68035;1275;1016190;-75
2023/12/23 09:21:48;;;;;;;;;;;;;;;9.01;39.49;96818.63;68012;1275;1016433;-74
2023/12/23 09:24:52;;;;;;;;;;;;;;;9.08;39.19;96827.46;67989;1275;1016888;-74
2023/12/23 09:27:55;;;;;;;;;;;;;;;9.12;39.06;96814.05;68025;1275;1016255;-75
2023/12/23 09:30:57;;;;;;;;;;;;;;;8.99;39.46;96813.44;68029;1275;1016522;-74
2023/12/23 09:34:00;;;;;;;;;;;;;;;8.73;39.99;96810.77;68012;1275;1016528;-74
2023/12/23 09:37:03;;;;;;;;;;;;;;;8.79;40.16;96806.09;68088;1275;1016823;-75
2023/12/23 09:40:05;;;;;;;;;;;;;;;8.61;40.46;96804.97;68016;1275;1016353;-74
2023/12/23 09:43:08;;;;;;;;;;;;;;;8.74;40.35;96798.30;67981;1275;1016199;-74
2023/12/23 09:46:11;;;;;;;;;;;;;;;8.86;40.04;96805.98;68063;1275;1016703;-75
2023/12/23 09:49:13;;;;;;;;;;;;;;;9.18;39.73;96794.14;68068;1275;1018976;-74
2023/12/23 09:52:19;;;;;;;;;;;;;;;9.35;39.84;96786.09;67976;1275;1016127;-74
2023/12/23 09:55:21;;;;;;;;;;;;;;;9.48;39.63;96780.15;68041;1275;1016476;-74
2023/12/23 09:58:24;;;;;;;;;;;;;;;9.84;39.47;96776.64;68017;1275;1016437;-73
2023/12/23 10:01:26;;;;;;;;;;;;;;;10.00;39.02;96768.73;68028;1275;1016508;-74
2023/12/23 10:04:29;;;;;;;;;;;;;;;10.12;39.12;96765.55;68071;1275;1016382;-74
2023/12/23 10:07:32;;;;;;;;;;;;;;;9.97;39.01;96770.00;68009;1274;1016612;-74
2023/12/23 10:10:34;;;;;;;;;;;;;;;9.72;39.45;96765.28;68016;1275;1016440;-75
2023/12/23 10:13:37;;;;;;;;;;;;;;;9.74;39.80;96761.30;68032;1275;1016068;-74
2023/12/23 10:16:40;;;;;;;;;;;;;;;10.05;39.81;96748.02;68051;1275;1016455;-74
2023/12/23 10:19:42;;;;;;;;;;;;;;;10.30;38.99;96744.36;68014;1275;1019858;-76
2023/12/23 10:22:45;;;;;;;;;;;;;;;10.52;38.77;96769.05;67981;1275;1017562;-75
2023/12/23 10:25:48;;;;;;;;;;;;;;;10.10;38.45;96772.67;68054;1275;1016423;-74
2023/12/23 10:28:50;;;;;;;;;;;;;;;9.95;39.10;96768.51;68052;1275;1016135;-75
2023/12/23 10:31:53;;;;;;;;;;;;;;;10.00;39.00;96777.13;67994;1275;1019008;-74
2023/12/23 10:34:55;;;;;;;;;;;;;;;9.79;39.25;96784.27;68035;1275;1016516;-74
2023/12/23 10:37:58;;;;;;;;;;;;;;;9.82;39.31;96775.41;68007;1275;1016669;-75
2023/12/23 10:41:00;;;;;;;;;;;;;;;9.68;39.48;96779.73;67999;1275;1018218;-74
2023/12/23 10:44:03;;;;;;;;;;;;;;;9.77;39.86;96779.55;67998;1275;1016292;-75
2023/12/23 10:47:07;;;;;;;;;;;;;;;9.66;40.08;96771.92;67990;1275;1018746;-79
2023/12/23 10:50:09;;;;;;;;;;;;;;;9.80;39.88;96770.04;67998;1275;1015712;-74
2023/12/23 10:53:14;;;;;;;;;;;;;;;9.83;39.93;96759.07;68057;1275;1016318;-74
2023/12/23 10:56:18;;;;;;;;;;;;;;;9.73;40.37;96764.98;68002;1275;1016527;-74
2023/12/23 10:59:21;;;;;;;;;;;;;;;8.72;42.24;96776.87;68057;1275;1016434;-74
2023/12/23 11:02:25;;;;;;;;;;;;;;;9.17;42.17;96758.14;68056;1275;1016384;-74
2023/12/23 11:05:27;;;;;;;;;;;;;;;9.62;40.99;96761.66;67987;1273;1016562;-74
2023/12/23 11:08:30;;;;;;;;;;;;;;;9.73;41.07;96752.98;68030;1275;1016280;-74
2023/12/23 11:11:33;;;;;;;;;;;;;;;9.88;41.29;96753.70;68074;1275;1016457;-74
2023/12/23 11:14:35;;;;;;;;;;;;;;;9.91;41.73;96759.92;68021;1275;1018031;-75
2023/12/23 11:17:38;;;;;;;;;;;;;;;10.03;41.51;96756.73;68023;1275;1016376;-74
2023/12/23 11:20:40;;;;;;;;;;;;;;;9.92;42.07;96773.61;68070;1275;1016518;-75
2023/12/23 11:23:43;;;;;;;;;;;;;;;9.97;42.15;96759.38;68031;1275;1018150;-74
2023/12/23 11:26:52;;;;;;;;;;;;;;;10.02;41.95;96749.67;68008;1275;1016503;-74
2023/12/23 11:29:55;;;;;;;;;;;;;;;10.10;41.99;96770.55;67984;1275;1016087;-74
2023/12/23 11:32:58;;;;;;;;;;;;;;;10.24;41.70;96760.05;68017;1275;1016500;-75
2023/12/23 11:36:01;;;;;;;;;;;;;;;10.28;41.88;96757.45;68065;1275;1016384;-74
2023/12/23 11:39:03;;;;;;;;;;;;;;;10.37;42.01;96756.64;68044;1275;1016247;-74
2023/12/23 11:42:06;;;;;;;;;;;;;;;10.42;41.50;96749.73;67993;1275;1016251;-74
2023/12/23 11:45:08;;;;;;;;;;;;;;;10.59;41.43;96740.30;68060;1275;1016211;-74
2023/12/23 11:48:11;;;;;;;;;;;;;;;10.66;41.17;96730.33;68035;1275;1016492;-74
2023/12/23 11:51:14;;;;;;;;;;;;;;;10.52;41.46;96726.42;67995;1275;1016413;-75
2023/12/23 11:54:16;;;;;;;;;;;;;;;10.44;41.33;96723.80;68027;1275;1016327;-74
2023/12/23 11:57:19;;;;;;;;;;;;;;;10.46;41.42;96727.88;68066;1275;1016591;-75
2023/12/23 12:00:22;;;;;;;;;;;;;;;10.53;41.57;96714.42;68052;1275;1016478;-74
2023/12/23 12:03:24;;;;;;;;;;;;;;;10.52;41.59;96721.36;68007;1275;1016521;-75
2023/12/23 12:06:27;;;;;;;;;;;;;;;10.50;41.40;96733.55;68040;1275;1016009;-74
2023/12/23 12:09:29;;;;;;;;;;;;;;;10.40;41.90;96720.02;68012;1275;1019327;-74
2023/12/23 12:12:32;;;;;;;;;;;;;;;10.57;41.46;96708.33;68008;1275;1016484;-74
2023/12/23 12:15:35;;;;;;;;;;;;;;;10.54;41.74;96709.83;68058;1275;1015713;-74
2023/12/23 12:18:37;;;;;;;;;;;;;;;10.70;41.47;96707.89;68040;1275;1016395;-74
2023/12/23 12:21:41;;;;;;;;;;;;;;;10.44;41.93;96719.95;68035;1275;1016481;-74
2023/12/23 12:24:43;;;;;;;;;;;;;;;10.28;42.22;96710.45;68057;1275;1015576;-74
2023/12/23 12:27:46;;;;;;;;;;;;;;;10.27;42.60;96713.45;67962;1275;1016437;-74
2023/12/23 12:30:48;;;;;;;;;;;;;;;10.33;42.48;96711.77;68068;1275;1016398;-75
2023/12/23 12:33:51;;;;;;;;;;;;;;;10.45;42.61;96701.23;68046;1275;1019654;-74
2023/12/23 12:36:54;;;;;;;;;;;;;;;10.61;41.87;96702.31;68007;1275;1016317;-74
2023/12/23 12:39:57;;;;;;;;;;;;;;;10.67;41.88;96706.67;68015;1275;1016453;-74
2023/12/23 12:42:59;;;;;;;;;;;;;;;10.65;41.91;96710.65;68017;1275;1018894;-75
2023/12/23 12:46:02;;;;;;;;;;;;;;;11.00;41.55;96700.90;68005;1275;1016195;-74
2023/12/23 12:49:05;;;;;;;;;;;;;;;11.18;40.81;96699.13;68025;1275;1016296;-74
2023/12/23 12:52:08;;;;;;;;;;;;;;;11.07;41.22;96701.27;68001;1275;1016454;-74
2023/12/23 12:55:11;;;;;;;;;;;;;;;11.04;41.12;96701.70;68006;1275;1016193;-74
2023/12/23 12:58:15;;;;;;;;;;;;;;;10.90;41.62;96706.54;68063;1275;1016231;-75
2023/12/23 13:01:18;;;;;;;;;;;;;;;10.84;41.48;96710.96;68014;1275;1016464;-74
2023/12/23 13:04:20;;;;;;;;;;;;;;;10.73;42.21;96717.10;67978;1275;1017199;-73
2023/12/23 13:07:23;;;;;;;;;;;;;;;10.87;42.06;96717.71;67998;1275;1016472;-74
2023/12/23 13:10:26;;;;;;;;;;;;;;;10.74;42.75;96715.80;68003;1275;1016294;-74
2023/12/23 13:13:28;;;;;;;;;;;;;;;10.65;43.37;96723.65;67941;1275;1016420;-74
2023/12/23 13:16:31;;;;;;;;;;;;;;;10.45;43.73;96735.81;67994;1275;1016238;-75
2023/12/23 13:19:33;;;;;;;;;;;;;;;10.34;44.18;96738.88;68042;1275;1016835;-74
2023/12/23 13:22:38;;;;;;;;;;;;;;;10.42;44.20;96745.53;68032;1275;1016496;-74
2023/12/23 13:25:43;;;;;;;;;;;;;;;10.41;44.41;96732.52;67990;1275;1016706;-75
2023/12/23 13:28:46;;;;;;;;;;;;;;;10.44;44.76;96741.84;68072;1275;1016738;-75
2023/12/23 13:31:49;;;;;;;;;;;;;;;10.35;45.07;96746.00;68021;1275;1016737;-76
2023/12/23 13:34:52;;;;;;;;;;;;;;;10.46;44.44;96742.65;68037;1275;1018199;-78
2023/12/23 13:37:55;;;;;;;;;;;;;;;10.16;45.23;96744.58;67981;1275;1016424;-76
2023/12/23 13:40:57;;;;;;;;;;;;;;;10.34;44.57;96747.78;67986;1275;1016466;-76
2023/12/23 13:44:00;;;;;;;;;;;;;;;10.12;45.04;96748.77;68064;1275;1016342;-75
2023/12/23 13:47:04;;;;;;;;;;;;;;;10.11;45.25;96746.39;68018;1275;1016336;-74
2023/12/23 13:50:07;;;;;;;;;;;;;;;10.18;45.37;96752.59;67893;1275;1016445;-74
2023/12/23 13:53:10;;;;;;;;;;;;;;;10.22;45.45;96756.58;67964;1275;1016064;-74
2023/12/23 13:56:12;;;;;;;;;;;;;;;10.21;45.79;96761.19;67982;1275;1016445;-75
2023/12/23 13:59:15;;;;;;;;;;;;;;;10.29;45.94;96764.52;68008;1275;1016961;-75
2023/12/23 14:02:18;;;;;;;;;;;;;;;10.33;45.94;96770.41;68041;1275;1016912;-75
2023/12/23 14:05:21;;;;;;;;;;;;;;;10.33;46.17;96776.53;68039;1275;1016483;-75
2023/12/23 14:08:23;;;;;;;;;;;;;;;9.93;47.22;96776.13;67979;1275;1017161;-75
2023/12/23 14:11:26;;;;;;;;;;;;;;;10.06;47.13;96772.69;67894;1275;1016480;-74
2023/12/23 14:14:28;;;;;;;;;;;;;;;10.03;46.85;96766.48;67961;1275;1016343;-75
2023/12/23 14:17:33;;;;;;;;;;;;;;;9.86;47.43;96784.09;67961;1275;1016914;-74
2023/12/23 14:20:35;;;;;;;;;;;;;;;10.04;47.25;96777.60;68029;1275;1016455;-74
2023/12/23 14:23:38;;;;;;;;;;;;;;;9.88;47.85;96781.48;68051;1275;1016364;-74
2023/12/23 14:26:41;;;;;;;;;;;;;;;9.85;47.90;96782.11;68004;1275;1017612;-74
2023/12/23 14:29:48;;;;;;;;;;;;;;;9.68;48.39;96788.16;68003;1275;1016428;-74
2023/12/23 14:32:50;;;;;;;;;;;;;;;9.77;48.31;96785.98;68067;1275;1016427;-74
2023/12/23 14:35:53;;;;;;;;;;;;;;;9.78;48.49;96786.88;67980;1275;1016415;-73
2023/12/23 14:38:55;;;;;;;;;;;;;;;9.64;49.09;96795.16;68042;1275;1016454;-74
2023/12/23 14:41:58;;;;;;;;;;;;;;;9.70;48.73;96802.31;68075;1275;1015994;-74
2023/12/23 14:45:01;;;;;;;;;;;;;;;9.67;49.13;96812.33;67928;1275;1016326;-75
2023/12/23 14:48:04;;;;;;;;;;;;;;;9.64;49.75;96824.16;68060;1275;1016243;-74
2023/12/23 14:51:06;;;;;;;;;;;;;;;9.55;51.70;96821.39;68054;1275;1016127;-75
2023/12/23 14:54:09;;;;;;;;;;;;;;;9.54;52.79;96824.27;67996;1275;1016356;-74
2023/12/23 14:57:12;;;;;;;;;;;;;;;9.54;52.54;96827.48;67999;1275;1016141;-74
2023/12/23 15:00:15;;;;;;;;;;;;;;;9.67;50.86;96826.45;68046;1275;1016430;-74
2023/12/23 15:03:18;;;;;;;;;;;;;;;9.68;49.98;96819.92;68033;1275;1016321;-74
2023/12/23 15:06:21;;;;;;;;;;;;;;;9.82;47.97;96816.80;68046;1275;1016180;-74
2023/12/23 15:09:23;;;;;;;;;;;;;;;9.87;47.54;96837.48;68027;1275;1016423;-74
2023/12/23 15:12:26;;;;;;;;;;;;;;;9.70;47.97;96838.44;68009;1275;1016509;-74
2023/12/23 15:15:29;;;;;;;;;;;;;;;9.77;47.93;96837.82;68016;1275;1016237;-75
2023/12/23 15:18:41;;;;;;;;;;;;;;;;;;;;;
2023/12/23 15:21:55;;;;;;;;;;;;;;;9.81;47.92;96835.00;68014;1275;1016075;-74
2023/12/23 15:24:58;;;;;;;;;;;;;;;9.86;47.97;96841.56;68020;1275;1016390;-75
2023/12/23 15:28:01;;;;;;;;;;;;;;;9.86;48.27;96851.88;67982;1275;1016481;-75
2023/12/23 15:31:03;;;;;;;;;;;;;;;9.90;48.00;96849.74;68010;1275;1016332;-74
2023/12/23 15:34:06;;;;;;;;;;;;;;;9.89;48.38;96851.37;68010;1275;1016296;-75
2023/12/23 15:37:09;;;;;;;;;;;;;;;9.96;48.02;96853.42;67939;1275;1018650;-74